Time;durP1;ratioP1;P1;durP2;ratioP2;P2;SDS_P1;SDS_P2;PMS_P1;PMS_P2;Temp;Humidity;BMP_temperature;BMP_pressure;BME280_temperature;BME280_humidity;BME280_pressure;Samples;Min_cycle;Max_cycle;Signal;HPM_P1;HPM_P2
2023/01/20 00:00:15;;;;;;;0.17;0.17;;;;;;;;;;1744204;28;20673;-71
2023/01/20 00:01:08;;;;;;;0.10;0.10;;;;;;;;;;1744305;28;20686;-71
2023/01/20 00:01:59;;;;;;;0.38;0.38;;;;;;;;;;1747239;28;20505;-71
2023/01/20 00:02:51;;;;;;;0.20;0.20;;;;;;;;;;1745315;28;20655;-71
2023/01/20 00:03:44;;;;;;;0.20;0.20;;;;;;;;;;1745112;28;20205;-71
2023/01/20 00:04:36;;;;;;;0.10;0.10;;;;;;;;;;1752859;28;20194;-71
2023/01/20 00:05:27;;;;;;;0.10;0.10;;;;;;;;;;1744915;28;20274;-72
2023/01/20 00:06:19;;;;;;;0.15;0.15;;;;;;;;;;1748312;28;20221;-72
2023/01/20 00:07:10;;;;;;;0.25;0.25;;;;;;;;;;1746796;28;20587;-72
2023/01/20 00:08:02;;;;;;;0.20;0.20;;;;;;;;;;1745989;28;20283;-72
2023/01/20 00:08:57;;;;;;;0.20;0.20;;;;;;;;;;1746118;28;20206;-72
2023/01/20 00:09:49;;;;;;;0.10;0.10;;;;;;;;;;1744789;28;20668;-72
2023/01/20 00:10:40;;;;;;;0.20;0.20;;;;;;;;;;1743903;28;20730;-73
2023/01/20 00:11:32;;;;;;;0.10;0.10;;;;;;;;;;1744963;28;20267;-72
2023/01/20 00:12:24;;;;;;;0.10;0.10;;;;;;;;;;1747339;28;20298;-72
2023/01/20 00:13:16;;;;;;;0.15;0.15;;;;;;;;;;1745299;28;20259;-72
2023/01/20 00:14:11;;;;;;;0.20;0.20;;;;;;;;;;1748624;28;20741;-73
2023/01/20 00:15:06;;;;;;;0.10;0.10;;;;;;;;;;1750288;28;20198;-73
2023/01/20 00:15:58;;;;;;;0.10;0.10;;;;;;;;;;1743492;28;20693;-73
2023/01/20 00:16:49;;;;;;;0.20;0.20;;;;;;;;;;1745943;28;20668;-72
2023/01/20 00:17:41;;;;;;;0.20;0.20;;;;;;;;;;1746658;28;20276;-73
2023/01/20 00:18:32;;;;;;;0.30;0.30;;;;;;;;;;1747214;28;20363;-72
2023/01/20 00:19:24;;;;;;;0.57;0.57;;;;;;;;;;1751270;28;20631;-72
2023/01/20 00:20:15;;;;;;;0.10;0.10;;;;;;;;;;1745804;28;20210;-72
2023/01/20 00:21:08;;;;;;;0.10;0.10;;;;;;;;;;1746843;28;20217;-71
2023/01/20 00:21:59;;;;;;;0.28;0.28;;;;;;;;;;1745513;28;20635;-71
2023/01/20 00:22:51;;;;;;;0.20;0.20;;;;;;;;;;1747577;28;20567;-71
2023/01/20 00:23:42;;;;;;;0.13;0.13;;;;;;;;;;1746868;28;20460;-71
2023/01/20 00:24:35;;;;;;;0.05;0.05;;;;;;;;;;1739778;28;20264;-71
2023/01/20 00:25:26;;;;;;;0.22;0.22;;;;;;;;;;1745359;28;20279;-73
2023/01/20 00:26:20;;;;;;;0.30;0.30;;;;;;;;;;1750809;28;20205;-73
2023/01/20 00:27:11;;;;;;;0.13;0.13;;;;;;;;;;1745544;28;20520;-72
2023/01/20 00:28:03;;;;;;;0.20;0.20;;;;;;;;;;1747932;28;20436;-72
2023/01/20 00:29:00;;;;;;;0.10;0.10;;;;;;;;;;1741306;28;20268;-72
2023/01/20 00:29:53;;;;;;;0.25;0.25;;;;;;;;;;1739686;28;20206;-73
2023/01/20 00:30:44;;;;;;;0.30;0.30;;;;;;;;;;1737326;28;20288;-73
2023/01/20 00:31:36;;;;;;;0.20;0.20;;;;;;;;;;1749200;28;20193;-72
2023/01/20 00:32:27;;;;;;;0.20;0.20;;;;;;;;;;1745473;28;20271;-72
2023/01/20 00:33:19;;;;;;;0.28;0.28;;;;;;;;;;1747671;28;20213;-72
2023/01/20 00:34:10;;;;;;;0.10;0.10;;;;;;;;;;1746162;28;20240;-73
2023/01/20 00:35:04;;;;;;;0.10;0.10;;;;;;;;;;1746484;28;20206;-72
2023/01/20 00:35:55;;;;;;;0.15;0.15;;;;;;;;;;1744162;28;20237;-72
2023/01/20 00:36:47;;;;;;;0.22;0.22;;;;;;;;;;1745079;28;20216;-71
2023/01/20 00:37:38;;;;;;;0.10;0.10;;;;;;;;;;1745109;28;20593;-71
2023/01/20 00:38:29;;;;;;;0.20;0.20;;;;;;;;;;1745637;28;20217;-71
2023/01/20 00:39:22;;;;;;;0.20;0.20;;;;;;;;;;1746142;28;20202;-71
2023/01/20 00:40:14;;;;;;;0.08;0.08;;;;;;;;;;1745612;28;20301;-71
2023/01/20 00:41:07;;;;;;;0.30;0.30;;;;;;;;;;1745192;28;20667;-71
2023/01/20 00:41:58;;;;;;;0.20;0.20;;;;;;;;;;1747488;28;20213;-71
2023/01/20 00:42:50;;;;;;;0.10;0.10;;;;;;;;;;1745842;28;20667;-71
2023/01/20 00:43:41;;;;;;;0.17;0.17;;;;;;;;;;1745845;28;20210;-73
2023/01/20 00:44:33;;;;;;;0.10;0.10;;;;;;;;;;1752748;28;20205;-71
2023/01/20 00:45:24;;;;;;;0.10;0.10;;;;;;;;;;1745479;28;20206;-73
2023/01/20 00:46:16;;;;;;;0.10;0.10;;;;;;;;;;1745953;28;20202;-73
2023/01/20 00:47:07;;;;;;;0.10;0.10;;;;;;;;;;1745379;28;20213;-73
2023/01/20 00:47:59;;;;;;;0.10;0.10;;;;;;;;;;1747983;28;20679;-73
2023/01/20 00:48:50;;;;;;;0.10;0.10;;;;;;;;;;1745718;28;20283;-73
2023/01/20 00:49:42;;;;;;;0.20;0.20;;;;;;;;;;1746205;28;20202;-73
2023/01/20 00:50:35;;;;;;;0.20;0.20;;;;;;;;;;1745108;28;20338;-71
2023/01/20 00:51:27;;;;;;;0.20;0.20;;;;;;;;;;1750234;28;20208;-71
2023/01/20 00:52:18;;;;;;;0.20;0.20;;;;;;;;;;1745816;28;20271;-72
2023/01/20 00:53:09;;;;;;;0.20;0.20;;;;;;;;;;1745773;28;20854;-71
2023/01/20 00:54:01;;;;;;;0.10;0.10;;;;;;;;;;1745945;28;20390;-71
2023/01/20 00:54:52;;;;;;;0.10;0.10;;;;;;;;;;1746646;28;20214;-71
2023/01/20 00:55:45;;;;;;;0.15;0.15;;;;;;;;;;1744563;28;20234;-71
2023/01/20 00:56:37;;;;;;;0.10;0.10;;;;;;;;;;1741826;28;20276;-71
2023/01/20 00:57:29;;;;;;;0.20;0.20;;;;;;;;;;1745456;28;20465;-71
2023/01/20 00:58:20;;;;;;;0.15;0.15;;;;;;;;;;1747591;28;20268;-71
2023/01/20 00:59:13;;;;;;;0.10;0.10;;;;;;;;;;1745930;28;20290;-71
2023/01/20 01:00:05;;;;;;;0.10;0.10;;;;;;;;;;1746608;28;20304;-72
2023/01/20 01:00:57;;;;;;;0.10;0.10;;;;;;;;;;1745347;28;20230;-73
2023/01/20 01:01:49;;;;;;;0.10;0.10;;;;;;;;;;1748547;28;20210;-73
2023/01/20 01:02:40;;;;;;;0.10;0.10;;;;;;;;;;1745804;28;20208;-73
2023/01/20 01:03:32;;;;;;;0.10;0.10;;;;;;;;;;1745571;28;20321;-73
2023/01/20 01:04:23;;;;;;;0.10;0.10;;;;;;;;;;1751386;28;20623;-72
2023/01/20 01:05:15;;;;;;;0.10;0.10;;;;;;;;;;1746724;28;20206;-73
2023/01/20 01:06:08;;;;;;;0.20;0.20;;;;;;;;;;1745133;28;20225;-73
2023/01/20 01:06:59;;;;;;;0.20;0.20;;;;;;;;;;1745686;28;20285;-72
2023/01/20 01:07:51;;;;;;;0.10;0.10;;;;;;;;;;1746628;28;20210;-73
2023/01/20 01:08:47;;;;;;;0.10;0.10;;;;;;;;;;1746909;28;20648;-73
2023/01/20 01:09:38;;;;;;;0.28;0.28;;;;;;;;;;1739463;28;20211;-73
2023/01/20 01:10:30;;;;;;;0.10;0.10;;;;;;;;;;1743883;28;20513;-71
2023/01/20 01:11:24;;;;;;;0.20;0.20;;;;;;;;;;1745710;28;20217;-71
2023/01/20 01:12:16;;;;;;;0.03;0.03;;;;;;;;;;1745496;28;20740;-72
2023/01/20 01:13:08;;;;;;;0.10;0.10;;;;;;;;;;1747573;28;20338;-72
2023/01/20 01:14:00;;;;;;;0.10;0.10;;;;;;;;;;1745714;28;20245;-72
2023/01/20 01:14:51;;;;;;;0.25;0.25;;;;;;;;;;1745613;28;20371;-72
2023/01/20 01:15:49;;;;;;;0.10;0.10;;;;;;;;;;1744814;28;20652;-73
2023/01/20 01:16:40;;;;;;;0.15;0.15;;;;;;;;;;1741904;28;20259;-72
2023/01/20 01:17:32;;;;;;;0.20;0.20;;;;;;;;;;1747599;28;20232;-73
2023/01/20 01:18:23;;;;;;;0.15;0.15;;;;;;;;;;1747211;28;20218;-73
2023/01/20 01:19:15;;;;;;;0.10;0.10;;;;;;;;;;1749846;28;20219;-73
2023/01/20 01:20:06;;;;;;;0.20;0.20;;;;;;;;;;1748876;28;20539;-73
2023/01/20 01:20:59;;;;;;;0.40;0.40;;;;;;;;;;1743656;28;20230;-73
2023/01/20 01:21:50;;;;;;;0.10;0.10;;;;;;;;;;1746251;28;20210;-73
2023/01/20 01:22:43;;;;;;;0.30;0.30;;;;;;;;;;1746939;28;20198;-73
2023/01/20 01:23:35;;;;;;;0.10;0.10;;;;;;;;;;1745725;28;20244;-73
2023/01/20 01:24:27;;;;;;;0.30;0.30;;;;;;;;;;1745727;28;20206;-73
2023/01/20 01:25:18;;;;;;;0.30;0.30;;;;;;;;;;1744474;28;20580;-72
2023/01/20 01:26:10;;;;;;;0.20;0.20;;;;;;;;;;1745983;28;20198;-72
2023/01/20 01:27:03;;;;;;;0.20;0.20;;;;;;;;;;1745214;28;20262;-71
2023/01/20 01:27:55;;;;;;;0.00;0.00;;;;;;;;;;1747087;28;20206;-71
2023/01/20 01:28:47;;;;;;;0.10;0.10;;;;;;;;;;1745665;28;20275;-72
2023/01/20 01:29:39;;;;;;;0.20;0.20;;;;;;;;;;1753220;28;20201;-72
2023/01/20 01:30:30;;;;;;;0.00;0.00;;;;;;;;;;1744352;28;20233;-73
2023/01/20 01:31:22;;;;;;;0.10;0.10;;;;;;;;;;1746704;28;20207;-73
2023/01/20 01:32:14;;;;;;;0.17;0.17;;;;;;;;;;1747074;28;20959;-73
2023/01/20 01:33:06;;;;;;;0.15;0.15;;;;;;;;;;1748353;28;20388;-73
2023/01/20 01:33:57;;;;;;;0.10;0.10;;;;;;;;;;1747109;28;20527;-73
2023/01/20 01:34:49;;;;;;;0.17;0.17;;;;;;;;;;1746928;28;20229;-73
2023/01/20 01:35:40;;;;;;;0.15;0.15;;;;;;;;;;1746121;28;20629;-73
2023/01/20 01:36:32;;;;;;;0.20;0.20;;;;;;;;;;1747079;28;20528;-73
2023/01/20 01:37:23;;;;;;;0.20;0.20;;;;;;;;;;1751897;28;20214;-72
2023/01/20 01:38:15;;;;;;;0.10;0.10;;;;;;;;;;1750055;28;20343;-73
2023/01/20 01:39:06;;;;;;;0.20;0.20;;;;;;;;;;1746937;28;20237;-73
2023/01/20 01:39:58;;;;;;;0.20;0.20;;;;;;;;;;1747270;28;20220;-73
2023/01/20 01:40:49;;;;;;;0.13;0.13;;;;;;;;;;1745426;28;20528;-73
2023/01/20 01:41:41;;;;;;;0.20;0.20;;;;;;;;;;1746839;28;20194;-73
2023/01/20 01:42:34;;;;;;;0.10;0.10;;;;;;;;;;1748353;28;20379;-72
2023/01/20 01:43:27;;;;;;;0.22;0.22;;;;;;;;;;1746808;28;20214;-73
2023/01/20 01:44:24;;;;;;;0.10;0.10;;;;;;;;;;1751474;28;20647;-73
2023/01/20 01:45:36;;;;;;;0.10;0.10;;;;;;;;;;1740560;28;20587;-72
2023/01/20 01:46:27;;;;;;;0.10;0.10;;;;;;;;;;1744486;28;20621;-72
2023/01/20 01:47:19;;;;;;;0.10;0.10;;;;;;;;;;1746812;28;20248;-71
2023/01/20 01:48:10;;;;;;;0.30;0.30;;;;;;;;;;1746899;28;20259;-72
2023/01/20 01:49:04;;;;;;;0.00;0.00;;;;;;;;;;1744373;28;20215;-71
2023/01/20 01:49:55;;;;;;;0.20;0.20;;;;;;;;;;1751492;28;20242;-71
2023/01/20 01:50:49;;;;;;;0.10;0.10;;;;;;;;;;1745745;28;20265;-71
2023/01/20 01:51:42;;;;;;;0.10;0.10;;;;;;;;;;1742994;28;20218;-71
2023/01/20 01:52:34;;;;;;;0.10;0.10;;;;;;;;;;1746964;28;20202;-71
2023/01/20 01:53:26;;;;;;;0.10;0.10;;;;;;;;;;1748277;28;20274;-71
2023/01/20 01:54:20;;;;;;;0.20;0.20;;;;;;;;;;1747013;28;20284;-71
2023/01/20 01:55:13;;;;;;;0.20;0.20;;;;;;;;;;1746710;28;20203;-71
2023/01/20 01:56:05;;;;;;;0.20;0.20;;;;;;;;;;1748036;28;20222;-72
2023/01/20 01:56:56;;;;;;;0.30;0.30;;;;;;;;;;1749526;28;20441;-72
2023/01/20 01:57:50;;;;;;;0.20;0.20;;;;;;;;;;1746781;28;20206;-72
2023/01/20 01:58:43;;;;;;;0.20;0.20;;;;;;;;;;1746013;28;20199;-72
2023/01/20 01:59:38;;;;;;;0.10;0.10;;;;;;;;;;1753622;28;20643;-72
2023/01/20 02:00:29;;;;;;;0.40;0.40;;;;;;;;;;1745399;28;20217;-71
2023/01/20 02:01:21;;;;;;;0.22;0.22;;;;;;;;;;1746566;28;20226;-71
2023/01/20 02:02:12;;;;;;;0.32;0.32;;;;;;;;;;1746350;28;20297;-71
2023/01/20 02:03:04;;;;;;;0.20;0.20;;;;;;;;;;1748246;28;20198;-72
2023/01/20 02:03:57;;;;;;;0.20;0.20;;;;;;;;;;1746747;28;20206;-72
2023/01/20 02:04:49;;;;;;;0.20;0.20;;;;;;;;;;1746613;28;20251;-72
2023/01/20 02:05:41;;;;;;;0.10;0.10;;;;;;;;;;1745679;28;20756;-73
2023/01/20 02:06:34;;;;;;;0.10;0.10;;;;;;;;;;1746546;28;20207;-73
2023/01/20 02:07:25;;;;;;;0.10;0.10;;;;;;;;;;1746959;28;20210;-73
2023/01/20 02:08:18;;;;;;;0.20;0.20;;;;;;;;;;1746635;28;20198;-73
2023/01/20 02:09:09;;;;;;;0.10;0.10;;;;;;;;;;1749791;28;20606;-73
2023/01/20 02:10:04;;;;;;;0.20;0.20;;;;;;;;;;1750467;28;20213;-73
2023/01/20 02:11:01;;;;;;;0.10;0.10;;;;;;;;;;1745913;28;20234;-71
2023/01/20 02:11:54;;;;;;;0.10;0.10;;;;;;;;;;1749454;28;20198;-71
2023/01/20 02:12:48;;;;;;;0.20;0.20;;;;;;;;;;1747246;28;20772;-71
2023/01/20 02:13:41;;;;;;;0.10;0.10;;;;;;;;;;1745771;28;20210;-71
2023/01/20 02:14:34;;;;;;;0.20;0.20;;;;;;;;;;1752998;28;20698;-72
2023/01/20 02:15:27;;;;;;;0.20;0.20;;;;;;;;;;1745612;28;20202;-72
2023/01/20 02:16:24;;;;;;;0.10;0.10;;;;;;;;;;1746909;28;20267;-73
2023/01/20 02:17:20;;;;;;;0.20;0.20;;;;;;;;;;1750579;28;20647;-73
2023/01/20 02:18:25;;;;;;;0.10;0.10;;;;;;;;;;1750491;28;20202;-73
2023/01/20 02:19:33;;;;;;;0.10;0.10;;;;;;;;;;1744891;28;20282;-73
2023/01/20 02:20:33;;;;;;;0.20;0.20;;;;;;;;;;1744610;28;20237;-73
2023/01/20 02:21:44;;;;;;;0.20;0.20;;;;;;;;;;1746676;28;20293;-73
2023/01/20 02:22:42;;;;;;;0.20;0.20;;;;;;;;;;1747733;28;20334;-73
2023/01/20 02:23:54;;;;;;;0.20;0.20;;;;;;;;;;1747980;28;20526;-73
2023/01/20 02:25:03;;;;;;;0.30;0.30;;;;;;;;;;1741003;28;20188;-73
2023/01/20 02:26:03;;;;;;;0.05;0.05;;;;;;;;;;1710621;28;20237;-73
2023/01/20 02:26:59;;;;;;;0.20;0.20;;;;;;;;;;1739719;28;20652;-72
2023/01/20 02:28:15;;;;;;;0.10;0.10;;;;;;;;;;1746980;28;20566;-73
2023/01/20 02:29:19;;;;;;;0.30;0.30;;;;;;;;;;1719790;28;20482;-73
2023/01/20 02:30:22;;;;;;;0.20;0.20;;;;;;;;;;1744086;28;20214;-72
2023/01/20 02:33:12;;;;;;;0.20;0.20;;;;;;;;;;1776836;27;20920;-66
2023/01/20 02:34:04;;;;;;;0.20;0.20;;;;;;;;;;1747595;27;20215;-66
2023/01/20 02:34:57;;;;;;;0.10;0.10;;;;;;;;;;1744238;28;20198;-66
2023/01/20 02:35:51;;;;;;;0.20;0.20;;;;;;;;;;1732378;28;20591;-66
2023/01/20 02:36:44;;;;;;;0.10;0.10;;;;;;;;;;1730994;28;20326;-67
2023/01/20 02:37:41;;;;;;;0.10;0.10;;;;;;;;;;1730553;28;20694;-66
2023/01/20 02:38:35;;;;;;;0.40;0.40;;;;;;;;;;1730648;28;20212;-66
2023/01/20 02:39:29;;;;;;;0.20;0.20;;;;;;;;;;1730566;28;20247;-66
2023/01/20 02:40:26;;;;;;;0.10;0.10;;;;;;;;;;1728188;28;20207;-65
2023/01/20 02:41:21;;;;;;;0.00;0.00;;;;;;;;;;1730837;28;20265;-66
2023/01/20 02:42:15;;;;;;;0.10;0.10;;;;;;;;;;1730424;28;20220;-66
2023/01/20 02:43:19;;;;;;;0.20;0.20;;;;;;;;;;1730601;28;20719;-66
2023/01/20 02:44:14;;;;;;;0.30;0.30;;;;;;;;;;1729884;28;20496;-66
2023/01/20 02:45:12;;;;;;;0.20;0.20;;;;;;;;;;1730020;28;20540;-66
2023/01/20 02:46:09;;;;;;;0.10;0.10;;;;;;;;;;1727797;28;20754;-66
2023/01/20 02:47:03;;;;;;;0.10;0.10;;;;;;;;;;1725898;28;20202;-66
2023/01/20 02:47:56;;;;;;;0.10;0.10;;;;;;;;;;1724416;28;20722;-66
2023/01/20 02:49:00;;;;;;;0.00;0.00;;;;;;;;;;1730844;28;20203;-66
2023/01/20 02:49:54;;;;;;;0.20;0.20;;;;;;;;;;1725378;28;20181;-65
2023/01/20 02:50:54;;;;;;;0.20;0.20;;;;;;;;;;1717249;28;20237;-66
2023/01/20 02:51:50;;;;;;;0.28;0.28;;;;;;;;;;1720800;28;20336;-66
2023/01/20 02:52:50;;;;;;;0.10;0.10;;;;;;;;;;1723284;28;20884;-65
2023/01/20 02:53:44;;;;;;;0.22;0.22;;;;;;;;;;1722602;28;20204;-65
2023/01/20 02:54:40;;;;;;;0.05;0.05;;;;;;;;;;1717255;28;20596;-65
2023/01/20 02:55:34;;;;;;;0.20;0.20;;;;;;;;;;1720132;28;20603;-65
2023/01/20 02:56:29;;;;;;;0.10;0.10;;;;;;;;;;1719268;28;20211;-64
2023/01/20 02:57:23;;;;;;;0.20;0.20;;;;;;;;;;1722543;28;20236;-64
2023/01/20 02:58:18;;;;;;;0.10;0.10;;;;;;;;;;1723382;28;20196;-64
2023/01/20 02:59:11;;;;;;;0.10;0.10;;;;;;;;;;1720776;28;20222;-64
2023/01/20 03:00:04;;;;;;;0.15;0.15;;;;;;;;;;1719479;28;20877;-64
2023/01/20 03:01:05;;;;;;;0.10;0.10;;;;;;;;;;1721777;28;20236;-64
2023/01/20 03:02:01;;;;;;;0.15;0.15;;;;;;;;;;1719310;28;20205;-64
2023/01/20 03:02:54;;;;;;;0.13;0.13;;;;;;;;;;1723401;28;20207;-63
2023/01/20 03:03:47;;;;;;;0.30;0.30;;;;;;;;;;1717561;28;20245;-64
2023/01/20 03:04:45;;;;;;;0.13;0.13;;;;;;;;;;1716950;28;20248;-62
2023/01/20 03:05:39;;;;;;;0.10;0.10;;;;;;;;;;1719255;28;20337;-65
2023/01/20 03:06:34;;;;;;;0.13;0.13;;;;;;;;;;1723544;28;20220;-64
2023/01/20 03:07:27;;;;;;;0.10;0.10;;;;;;;;;;1722033;28;20217;-63
2023/01/20 03:08:20;;;;;;;0.10;0.10;;;;;;;;;;1723536;28;20208;-64
2023/01/20 03:09:15;;;;;;;0.10;0.10;;;;;;;;;;1723632;28;20271;-64
2023/01/20 03:10:16;;;;;;;0.15;0.15;;;;;;;;;;1723707;28;20200;-63
2023/01/20 03:11:10;;;;;;;0.17;0.17;;;;;;;;;;1726735;28;20343;-63
2023/01/20 03:12:07;;;;;;;0.10;0.10;;;;;;;;;;1729595;28;20196;-64
2023/01/20 03:13:01;;;;;;;0.10;0.10;;;;;;;;;;1729792;28;20208;-64
2023/01/20 03:13:56;;;;;;;0.10;0.10;;;;;;;;;;1730685;28;20246;-64
2023/01/20 03:14:47;;;;;;;0.25;0.25;;;;;;;;;;1730444;28;20287;-64
2023/01/20 03:15:43;;;;;;;0.22;0.22;;;;;;;;;;1722115;28;20236;-65
2023/01/20 03:16:35;;;;;;;0.10;0.10;;;;;;;;;;1723555;28;20339;-65
2023/01/20 03:17:27;;;;;;;0.10;0.10;;;;;;;;;;1723323;28;20588;-65
2023/01/20 03:18:18;;;;;;;0.00;0.00;;;;;;;;;;1723531;28;20438;-65
2023/01/20 03:19:10;;;;;;;0.00;0.00;;;;;;;;;;1723537;28;20512;-65
2023/01/20 03:20:03;;;;;;;0.20;0.20;;;;;;;;;;1723401;28;20240;-65
2023/01/20 03:20:55;;;;;;;0.20;0.20;;;;;;;;;;1721878;28;20350;-65
2023/01/20 03:21:46;;;;;;;0.10;0.10;;;;;;;;;;1719916;28;20315;-65
2023/01/20 03:22:38;;;;;;;0.10;0.10;;;;;;;;;;1717883;28;20209;-65
2023/01/20 03:23:31;;;;;;;0.20;0.20;;;;;;;;;;1717897;28;20259;-65
2023/01/20 03:24:25;;;;;;;0.28;0.28;;;;;;;;;;1721305;28;20465;-65
2023/01/20 03:25:17;;;;;;;0.10;0.10;;;;;;;;;;1721352;28;20300;-65
2023/01/20 03:26:10;;;;;;;0.10;0.10;;;;;;;;;;1730138;28;20227;-64
2023/01/20 03:27:01;;;;;;;0.10;0.10;;;;;;;;;;1730084;28;20615;-65
2023/01/20 03:27:53;;;;;;;0.10;0.10;;;;;;;;;;1730292;28;20199;-63
2023/01/20 03:28:45;;;;;;;0.20;0.20;;;;;;;;;;1724811;28;20266;-65
2023/01/20 03:29:37;;;;;;;0.00;0.00;;;;;;;;;;1729621;28;20208;-65
2023/01/20 03:30:28;;;;;;;0.20;0.20;;;;;;;;;;1723516;28;20244;-64
2023/01/20 03:31:21;;;;;;;0.28;0.28;;;;;;;;;;1716820;28;20197;-63
2023/01/20 03:32:13;;;;;;;0.10;0.10;;;;;;;;;;1718330;28;20262;-65
2023/01/20 03:33:05;;;;;;;0.20;0.20;;;;;;;;;;1722150;28;20670;-65
2023/01/20 03:33:58;;;;;;;0.28;0.28;;;;;;;;;;1716749;28;20259;-64
2023/01/20 03:34:50;;;;;;;0.30;0.30;;;;;;;;;;1717504;28;20727;-65
2023/01/20 03:35:43;;;;;;;0.03;0.03;;;;;;;;;;1722353;28;20675;-64
2023/01/20 03:36:36;;;;;;;0.20;0.20;;;;;;;;;;1729728;28;20212;-65
2023/01/20 03:37:27;;;;;;;0.10;0.10;;;;;;;;;;1728275;28;20243;-65
2023/01/20 03:38:19;;;;;;;0.10;0.10;;;;;;;;;;1727233;28;20666;-65
2023/01/20 03:39:11;;;;;;;0.10;0.10;;;;;;;;;;1726115;28;20337;-65
2023/01/20 03:40:03;;;;;;;0.10;0.10;;;;;;;;;;1729635;28;20206;-64
2023/01/20 03:41:00;;;;;;;0.20;0.20;;;;;;;;;;1718397;28;20236;-64
2023/01/20 03:41:56;;;;;;;0.20;0.20;;;;;;;;;;1718370;28;20229;-64
2023/01/20 03:42:53;;;;;;;0.10;0.10;;;;;;;;;;1717354;28;20256;-65
2023/01/20 03:43:46;;;;;;;0.10;0.10;;;;;;;;;;1720936;28;20224;-64
2023/01/20 03:44:45;;;;;;;0.10;0.10;;;;;;;;;;1712871;28;20454;-65
2023/01/20 03:45:41;;;;;;;0.20;0.20;;;;;;;;;;1711405;28;20283;-64
2023/01/20 03:46:36;;;;;;;0.17;0.17;;;;;;;;;;1716883;28;20732;-65
2023/01/20 03:47:33;;;;;;;0.08;0.08;;;;;;;;;;1717014;28;20243;-64
2023/01/20 03:48:28;;;;;;;0.20;0.20;;;;;;;;;;1716585;28;20267;-65
2023/01/20 03:49:24;;;;;;;0.40;0.40;;;;;;;;;;1715968;28;20228;-64
2023/01/20 03:50:22;;;;;;;0.15;0.15;;;;;;;;;;1716422;28;20263;-65
2023/01/20 03:51:19;;;;;;;0.10;0.10;;;;;;;;;;1720830;28;20243;-65
2023/01/20 03:52:16;;;;;;;0.10;0.10;;;;;;;;;;1719889;28;20205;-65
2023/01/20 03:53:12;;;;;;;0.05;0.05;;;;;;;;;;1720036;28;20308;-65
2023/01/20 03:54:10;;;;;;;0.10;0.10;;;;;;;;;;1722541;28;20791;-65
2023/01/20 03:55:06;;;;;;;0.15;0.15;;;;;;;;;;1722922;28;20734;-65
2023/01/20 03:55:59;;;;;;;0.13;0.13;;;;;;;;;;1718158;28;20237;-65
2023/01/20 03:56:54;;;;;;;0.10;0.10;;;;;;;;;;1721381;28;20370;-64
2023/01/20 03:57:48;;;;;;;0.10;0.10;;;;;;;;;;1725304;28;20193;-64
2023/01/20 03:58:43;;;;;;;0.20;0.20;;;;;;;;;;1725252;28;20239;-64
2023/01/20 03:59:35;;;;;;;0.20;0.20;;;;;;;;;;1725794;28;20266;-64
2023/01/20 04:00:28;;;;;;;0.20;0.20;;;;;;;;;;1720656;28;20232;-64
2023/01/20 04:01:22;;;;;;;0.10;0.10;;;;;;;;;;1722299;28;20618;-64
2023/01/20 04:02:14;;;;;;;0.10;0.10;;;;;;;;;;1723402;28;20204;-65
2023/01/20 04:03:07;;;;;;;0.20;0.20;;;;;;;;;;1724378;28;20550;-64
2023/01/20 04:04:00;;;;;;;0.13;0.13;;;;;;;;;;1719460;28;20197;-64
2023/01/20 04:04:51;;;;;;;0.20;0.20;;;;;;;;;;1724213;28;20254;-64
2023/01/20 04:05:44;;;;;;;0.20;0.20;;;;;;;;;;1721200;28;20599;-65
2023/01/20 04:06:39;;;;;;;0.13;0.13;;;;;;;;;;1723693;28;20671;-65
2023/01/20 04:07:32;;;;;;;0.15;0.15;;;;;;;;;;1723666;28;20575;-65
2023/01/20 04:08:27;;;;;;;0.20;0.20;;;;;;;;;;1725367;28;20269;-64
2023/01/20 04:09:22;;;;;;;0.22;0.22;;;;;;;;;;1724550;28;20224;-64
2023/01/20 04:10:15;;;;;;;0.03;0.03;;;;;;;;;;1722746;28;20678;-65
2023/01/20 04:11:09;;;;;;;0.13;0.13;;;;;;;;;;1725102;28;20236;-65
2023/01/20 04:12:00;;;;;;;0.05;0.05;;;;;;;;;;1725051;28;20262;-64
2023/01/20 04:12:52;;;;;;;0.00;0.00;;;;;;;;;;1726014;28;20236;-65
2023/01/20 04:13:43;;;;;;;0.10;0.10;;;;;;;;;;1724995;28;20259;-65
2023/01/20 04:14:35;;;;;;;0.10;0.10;;;;;;;;;;1725734;28;20252;-64
2023/01/20 04:15:26;;;;;;;0.10;0.10;;;;;;;;;;1720807;28;20204;-64
2023/01/20 04:16:19;;;;;;;0.08;0.08;;;;;;;;;;1715972;28;20750;-64
2023/01/20 04:17:10;;;;;;;0.20;0.20;;;;;;;;;;1713880;28;20268;-64
2023/01/20 04:18:12;;;;;;;0.10;0.10;;;;;;;;;;1718398;28;20223;-63
2023/01/20 04:19:04;;;;;;;0.10;0.10;;;;;;;;;;1719004;28;20752;-65
2023/01/20 04:19:56;;;;;;;0.20;0.20;;;;;;;;;;1717750;28;20208;-64
2023/01/20 04:20:48;;;;;;;0.15;0.15;;;;;;;;;;1718522;28;20237;-64
2023/01/20 04:21:45;;;;;;;0.20;0.20;;;;;;;;;;1719326;28;20560;-64
2023/01/20 04:22:38;;;;;;;0.10;0.10;;;;;;;;;;1723840;28;20212;-64
2023/01/20 04:23:33;;;;;;;0.20;0.20;;;;;;;;;;1721490;28;20243;-64
2023/01/20 04:24:26;;;;;;;0.20;0.20;;;;;;;;;;1723133;28;20231;-64
2023/01/20 04:25:22;;;;;;;0.20;0.20;;;;;;;;;;1722481;28;20345;-64
2023/01/20 04:26:13;;;;;;;0.20;0.20;;;;;;;;;;1724854;28;20239;-65
2023/01/20 04:27:05;;;;;;;0.10;0.10;;;;;;;;;;1719982;28;20232;-65
2023/01/20 04:27:56;;;;;;;0.30;0.30;;;;;;;;;;1718991;28;20271;-64
2023/01/20 04:28:48;;;;;;;0.10;0.10;;;;;;;;;;1720634;28;20240;-65
2023/01/20 04:29:40;;;;;;;0.13;0.13;;;;;;;;;;1724786;28;20267;-64
2023/01/20 04:30:32;;;;;;;0.10;0.10;;;;;;;;;;1719363;28;20228;-65
2023/01/20 04:31:23;;;;;;;0.20;0.20;;;;;;;;;;1711306;28;20759;-65
2023/01/20 04:32:15;;;;;;;0.10;0.10;;;;;;;;;;1715859;28;20217;-64
2023/01/20 04:33:06;;;;;;;0.20;0.20;;;;;;;;;;1717537;28;20617;-64
2023/01/20 04:33:58;;;;;;;0.13;0.13;;;;;;;;;;1712637;28;20649;-64
2023/01/20 04:34:50;;;;;;;0.15;0.15;;;;;;;;;;1713562;28;20675;-64
2023/01/20 04:35:42;;;;;;;0.00;0.00;;;;;;;;;;1713441;28;20240;-64
2023/01/20 04:36:34;;;;;;;0.10;0.10;;;;;;;;;;1713234;28;20221;-65
2023/01/20 04:37:27;;;;;;;0.10;0.10;;;;;;;;;;1715343;28;20216;-65
2023/01/20 04:38:19;;;;;;;0.20;0.20;;;;;;;;;;1717678;28;20240;-64
2023/01/20 04:39:10;;;;;;;0.10;0.10;;;;;;;;;;1716683;28;20243;-64
2023/01/20 04:40:12;;;;;;;0.30;0.30;;;;;;;;;;1714092;28;20233;-67
2023/01/20 04:41:04;;;;;;;0.20;0.20;;;;;;;;;;1717897;28;20240;-64
2023/01/20 04:41:56;;;;;;;0.20;0.20;;;;;;;;;;1718313;28;20197;-63
2023/01/20 04:42:47;;;;;;;0.10;0.10;;;;;;;;;;1718616;28;20274;-64
2023/01/20 04:43:39;;;;;;;0.22;0.22;;;;;;;;;;1718125;28;20688;-64
2023/01/20 04:44:30;;;;;;;0.20;0.20;;;;;;;;;;1718858;28;20217;-64
2023/01/20 04:45:25;;;;;;;0.20;0.20;;;;;;;;;;1718352;28;20209;-64
2023/01/20 04:46:21;;;;;;;0.00;0.00;;;;;;;;;;1725551;28;20220;-64
2023/01/20 04:47:13;;;;;;;0.15;0.15;;;;;;;;;;1724657;28;20200;-65
2023/01/20 04:48:06;;;;;;;0.20;0.20;;;;;;;;;;1725055;28;20312;-65
2023/01/20 04:48:58;;;;;;;0.10;0.10;;;;;;;;;;1725313;28;20200;-64
2023/01/20 04:49:51;;;;;;;0.10;0.10;;;;;;;;;;1719109;28;21047;-64
2023/01/20 04:50:43;;;;;;;0.20;0.20;;;;;;;;;;1714119;28;21777;-65
2023/01/20 04:51:34;;;;;;;0.20;0.20;;;;;;;;;;1724862;28;20224;-64
2023/01/20 04:52:27;;;;;;;0.10;0.10;;;;;;;;;;1725158;28;20208;-65
2023/01/20 04:53:18;;;;;;;0.10;0.10;;;;;;;;;;1724933;28;20228;-64
2023/01/20 04:54:11;;;;;;;0.10;0.10;;;;;;;;;;1725188;28;20291;-65
2023/01/20 04:55:03;;;;;;;0.08;0.08;;;;;;;;;;1724994;28;20676;-65
2023/01/20 04:55:55;;;;;;;0.10;0.10;;;;;;;;;;1716539;28;20715;-64
2023/01/20 04:56:47;;;;;;;0.20;0.20;;;;;;;;;;1712420;28;20634;-64
2023/01/20 04:57:39;;;;;;;0.13;0.13;;;;;;;;;;1716876;28;20201;-65
2023/01/20 04:58:30;;;;;;;0.00;0.00;;;;;;;;;;1713946;28;20210;-65
2023/01/20 04:59:22;;;;;;;0.20;0.20;;;;;;;;;;1715370;28;20657;-65
2023/01/20 05:00:18;;;;;;;0.10;0.10;;;;;;;;;;1715541;28;20209;-64
2023/01/20 05:01:10;;;;;;;0.10;0.10;;;;;;;;;;1724241;28;20691;-64
2023/01/20 05:02:01;;;;;;;0.20;0.20;;;;;;;;;;1721167;28;20201;-64
2023/01/20 05:02:53;;;;;;;0.10;0.10;;;;;;;;;;1719108;28;20614;-68
2023/01/20 05:03:46;;;;;;;0.17;0.17;;;;;;;;;;1720347;28;20216;-67
2023/01/20 05:04:38;;;;;;;0.10;0.10;;;;;;;;;;1724065;28;20226;-65
2023/01/20 05:05:29;;;;;;;0.20;0.20;;;;;;;;;;1721151;28;20773;-64
2023/01/20 05:06:21;;;;;;;0.10;0.10;;;;;;;;;;1725294;28;20262;-64
2023/01/20 05:07:12;;;;;;;0.22;0.22;;;;;;;;;;1720693;28;20205;-64
2023/01/20 05:08:05;;;;;;;0.20;0.20;;;;;;;;;;1724929;28;20762;-65
2023/01/20 05:08:57;;;;;;;0.20;0.20;;;;;;;;;;1718345;28;20631;-64
2023/01/20 05:09:49;;;;;;;0.20;0.20;;;;;;;;;;1720155;28;20620;-65
2023/01/20 05:10:40;;;;;;;0.10;0.10;;;;;;;;;;1722292;28;20491;-65
2023/01/20 05:11:32;;;;;;;0.25;0.25;;;;;;;;;;1723883;28;20297;-65
2023/01/20 05:12:23;;;;;;;0.15;0.15;;;;;;;;;;1718749;28;20302;-65
2023/01/20 05:13:15;;;;;;;0.10;0.10;;;;;;;;;;1718767;28;20205;-64
2023/01/20 05:14:06;;;;;;;0.20;0.20;;;;;;;;;;1719905;28;20201;-65
2023/01/20 05:14:58;;;;;;;0.13;0.13;;;;;;;;;;1722938;28;20703;-64
2023/01/20 05:15:49;;;;;;;0.10;0.10;;;;;;;;;;1719658;28;20241;-64
2023/01/20 05:16:41;;;;;;;0.10;0.10;;;;;;;;;;1722776;28;21345;-64
2023/01/20 05:17:32;;;;;;;0.10;0.10;;;;;;;;;;1723524;28;20208;-64
2023/01/20 05:18:23;;;;;;;0.32;0.32;;;;;;;;;;1723070;28;20213;-65
2023/01/20 05:19:15;;;;;;;0.20;0.20;;;;;;;;;;1720752;28;20228;-65
2023/01/20 05:20:07;;;;;;;0.10;0.10;;;;;;;;;;1722973;28;20291;-64
2023/01/20 05:20:59;;;;;;;0.20;0.20;;;;;;;;;;1722021;28;20267;-63
2023/01/20 05:21:50;;;;;;;0.20;0.20;;;;;;;;;;1720368;28;20220;-65